Time;durP1;ratioP1;P1;durP2;ratioP2;P2;SDS_P1;SDS_P2;PMS_P1;PMS_P2;Temp;Humidity;BMP_temperature;BMP_pressure;BME280_temperature;BME280_humidity;BME280_pressure;Samples;Min_cycle;Max_cycle;Signal;HPM_P1;HPM_P2
2023/09/06 00:00:45;;;;;;;8.50;7.70;;;;;;;16.65;100.00;100940.95;180381;1259;58420;-61
2023/09/06 00:05:09;;;;;;;8.70;6.10;;;;;;;16.48;100.00;100939.88;180497;1258;43746;-61
2023/09/06 00:09:38;;;;;;;9.30;6.60;;;;;;;16.36;100.00;100940.13;180386;1257;44724;-61
2023/09/06 00:13:41;;;;;;;9.10;7.40;;;;;;;16.28;100.00;100940.50;180416;1258;43811;-61
2023/09/06 00:17:44;;;;;;;12.90;7.40;;;;;;;16.29;100.00;100944.73;180387;1259;43716;-61
2023/09/06 00:21:50;;;;;;;11.70;7.70;;;;;;;16.27;100.00;100945.77;180566;1258;57235;-61
2023/09/06 00:25:58;;;;;;;11.00;7.20;;;;;;;16.18;100.00;100952.38;180413;1259;43610;-61
2023/09/06 00:30:12;;;;;;;8.70;7.60;;;;;;;16.12;100.00;100954.03;180300;1258;43610;-61
2023/09/06 00:34:16;;;;;;;11.80;8.30;;;;;;;16.07;100.00;100951.27;180338;1258;44392;-62
2023/09/06 00:38:29;;;;;;;8.40;6.20;;;;;;;16.03;100.00;100951.48;180421;1257;43585;-62
2023/09/06 00:42:33;;;;;;;12.50;8.80;;;;;;;15.99;100.00;100950.90;180409;1259;58440;-62
2023/09/06 00:47:03;;;;;;;9.60;7.00;;;;;;;15.94;100.00;100946.60;180319;1258;45983;-61
2023/09/06 00:51:07;;;;;;;10.90;8.10;;;;;;;15.91;100.00;100938.95;180453;1258;45539;-61
2023/09/06 00:55:12;;;;;;;11.00;8.10;;;;;;;15.85;100.00;100938.75;180412;1259;44138;-62
2023/09/06 00:59:22;;;;;;;8.10;7.20;;;;;;;15.80;100.00;100943.65;180371;1260;45955;-59
2023/09/06 01:04:39;;;;;;;15.10;8.30;;;;;;;15.77;100.00;100945.61;180020;1262;59034;-62
2023/09/06 01:08:57;;;;;;;8.90;7.80;;;;;;;15.70;100.00;100941.21;179907;1262;44790;-62
2023/09/06 01:13:00;;;;;;;10.40;7.40;;;;;;;15.65;100.00;100940.10;179972;1263;46079;-62
2023/09/06 01:17:57;;;;;;;11.20;6.90;;;;;;;15.62;100.00;100944.88;180050;1263;45931;-61
2023/09/06 01:22:34;;;;;;;11.20;7.60;;;;;;;15.57;100.00;100945.52;180324;1259;45858;-61
2023/09/06 01:26:54;;;;;;;12.20;7.90;;;;;;;15.54;100.00;100945.36;180421;1259;59978;-62
2023/09/06 01:30:59;;;;;;;8.40;7.60;;;;;;;15.51;100.00;100943.54;180350;1259;44980;-61
2023/09/06 01:35:07;;;;;;;10.80;6.80;;;;;;;15.43;100.00;100938.55;180395;1261;45878;-61
2023/09/06 01:40:11;;;;;;;10.90;7.30;;;;;;;15.42;100.00;100937.54;180465;1259;43633;-61
2023/09/06 01:44:15;;;;;;;13.10;8.80;;;;;;;15.42;100.00;100939.02;180317;1258;44896;-61
2023/09/06 01:48:19;;;;;;;11.50;7.20;;;;;;;15.33;100.00;100940.21;180371;1259;59905;-61
2023/09/06 01:52:22;;;;;;;7.30;5.90;;;;;;;15.26;100.00;100942.59;180434;1257;43766;-61
2023/09/06 01:56:25;;;;;;;7.70;6.30;;;;;;;15.21;100.00;100940.02;180412;1260;44968;-62
2023/09/06 02:00:31;;;;;;;9.00;6.80;;;;;;;15.15;100.00;100935.93;180390;1257;44491;-61
2023/09/06 02:04:37;;;;;;;10.30;6.20;;;;;;;15.08;100.00;100932.05;180364;1259;46048;-61
2023/09/06 02:09:06;;;;;;;11.70;7.90;;;;;;;15.05;100.00;100927.73;180228;1259;58441;-62
2023/09/06 02:13:09;;;;;;;9.10;6.60;;;;;;;15.03;100.00;100927.17;180335;1259;43560;-61
2023/09/06 02:17:14;;;;;;;8.30;7.50;;;;;;;15.00;100.00;100926.95;180397;1260;45961;-61
2023/09/06 02:21:17;;;;;;;11.10;7.30;;;;;;;14.91;100.00;100927.52;180226;1259;44667;-62
2023/09/06 02:25:29;;;;;;;8.90;7.80;;;;;;;14.84;100.00;100926.30;180303;1259;46182;-62
2023/09/06 02:29:32;;;;;;;8.70;7.20;;;;;;;14.81;100.00;100927.70;180358;1259;58717;-61
2023/09/06 02:33:35;;;;;;;15.30;8.90;;;;;;;14.79;100.00;100926.40;180406;1259;46079;-62
2023/09/06 02:37:41;;;;;;;7.60;6.80;;;;;;;14.79;100.00;100928.39;180281;1259;43771;-62
2023/09/06 02:41:59;;;;;;;13.00;7.80;;;;;;;14.80;100.00;100930.33;180366;1259;44793;-61
2023/09/06 02:46:03;;;;;;;8.60;7.70;;;;;;;14.76;100.00;100929.56;180352;1260;46020;-61
2023/09/06 02:50:18;;;;;;;9.00;7.30;;;;;;;14.73;100.00;100940.89;180281;1263;57575;-62
2023/09/06 02:54:22;;;;;;;10.10;7.00;;;;;;;14.70;100.00;100939.89;180413;1258;44843;-61
2023/09/06 02:58:27;;;;;;;7.80;5.60;;;;;;;14.67;100.00;100939.53;180375;1259;43708;-61
2023/09/06 03:02:39;;;;;;;9.30;6.30;;;;;;;14.61;100.00;100936.20;180452;1261;43683;-62
2023/09/06 03:06:45;;;;;;;7.60;5.80;;;;;;;14.46;100.00;100941.45;180399;1259;43769;-61
2023/09/06 03:10:48;;;;;;;6.10;5.30;;;;;;;14.23;100.00;100943.95;180404;1258;58168;-62
2023/09/06 03:14:55;;;;;;;6.70;6.00;;;;;;;14.05;100.00;100945.67;180393;1259;45529;-61
2023/09/06 03:19:00;;;;;;;9.00;6.50;;;;;;;14.02;100.00;100946.33;180404;1259;43648;-59
2023/09/06 03:23:26;;;;;;;8.20;6.80;;;;;;;14.01;100.00;100954.02;180375;1262;43656;-59
2023/09/06 03:27:29;;;;;;;13.60;5.40;;;;;;;14.08;100.00;100958.42;180439;1260;45962;-59
2023/09/06 03:31:34;;;;;;;9.60;6.70;;;;;;;14.12;100.00;100955.57;180451;1259;60083;-59
2023/09/06 03:36:42;;;;;;;9.80;7.20;;;;;;;14.16;100.00;100961.48;180449;1259;43789;-59
2023/09/06 03:40:45;;;;;;;8.30;7.50;;;;;;;14.20;100.00;100965.46;180409;1261;44366;-59
2023/09/06 03:44:52;;;;;;;11.10;10.00;;;;;;;14.24;100.00;100967.06;180340;1259;43679;-59
2023/09/06 03:48:55;;;;;;;;;;;;;;;14.30;100.00;100963.65;180468;1260;43554;-59
2023/09/06 03:52:59;;;;;;;13.00;8.70;;;;;;;14.35;100.00;100968.40;180515;1258;58281;-59
2023/09/06 03:57:07;;;;;;;16.50;11.00;;;;;;;14.35;100.00;100970.40;180436;1258;43913;-60
2023/09/06 04:01:15;;;;;;;12.60;10.50;;;;;;;14.36;100.00;100972.09;180214;1260;45910;-60
2023/09/06 04:05:25;;;;;;;11.20;9.40;;;;;;;14.39;100.00;100974.83;179895;1256;83348;-89
2023/09/06 04:09:37;;;;;;;12.70;8.10;;;;;;;14.39;100.00;100973.59;178743;1260;45902;-90
2023/09/06 04:13:41;;;;;;;13.10;8.50;;;;;;;14.27;100.00;100968.91;178599;1262;59397;-91
2023/09/06 04:17:45;;;;;;;11.30;9.30;;;;;;;14.02;100.00;100971.79;179350;1260;45940;-91
2023/09/06 04:21:49;;;;;;;12.40;8.80;;;;;;;13.75;100.00;100975.30;179756;1259;45870;-90
2023/09/06 04:25:55;;;;;;;12.70;8.90;;;;;;;13.53;100.00;100977.64;179327;1263;45991;-91
2023/09/06 04:29:59;;;;;;;27.20;11.00;;;;;;;13.48;100.00;100982.48;179235;1259;46105;-91
2023/09/06 04:34:04;;;;;;;16.70;9.50;;;;;;;13.46;100.00;100982.20;178952;1259;59587;-91
2023/09/06 04:38:27;;;;;;;10.70;8.80;;;;;;;13.53;100.00;100981.71;179156;1261;46008;-91
2023/09/06 04:42:33;;;;;;;11.70;8.40;;;;;;;13.84;100.00;100984.87;179601;1260;46597;-91
2023/09/06 04:46:36;;;;;;;14.50;8.70;;;;;;;14.56;100.00;100978.02;179101;1260;46109;-90
2023/09/06 04:50:42;;;;;;;9.50;7.70;;;;;;;15.44;100.00;100978.48;178793;1259;44659;-91
2023/09/06 04:54:47;;;;;;;12.00;9.00;;;;;;;16.23;100.00;100982.30;178629;1260;57984;-90
2023/09/06 04:58:52;;;;;;;9.90;8.70;;;;;;;16.93;100.00;100980.82;178482;1259;46031;-91
2023/09/06 05:02:56;;;;;;;21.60;12.30;;;;;;;17.73;100.00;100987.17;179673;1260;45794;-90
2023/09/06 05:07:01;;;;;;;96.80;63.40;;;;;;;18.42;100.00;100989.67;178864;1260;46004;-91
2023/09/06 05:11:06;;;;;;;80.80;46.50;;;;;;;18.59;99.28;100995.42;178486;1264;45904;-90
2023/09/06 05:15:12;;;;;;;62.60;24.90;;;;;;;18.50;99.34;101009.48;178935;1259;60160;-90
2023/09/06 05:19:16;;;;;;;36.50;15.70;;;;;;;18.73;97.93;101006.26;178450;1260;46031;-90
2023/09/06 05:23:20;;;;;;;20.10;12.60;;;;;;;19.39;98.57;101006.06;178292;1259;46090;-90
2023/09/06 05:27:23;;;;;;;28.10;13.60;;;;;;;20.02;94.45;101004.48;178113;1260;45942;-91
2023/09/06 05:31:27;;;;;;;28.00;14.60;;;;;;;20.49;88.47;101005.46;178131;1260;45867;-90
2023/09/06 05:35:34;;;;;;;13.50;9.00;;;;;;;20.71;85.92;101007.85;178130;1261;61056;-90
2023/09/06 05:39:37;;;;;;;11.20;7.60;;;;;;;20.85;83.98;101004.55;178485;1259;45968;-89
2023/09/06 05:43:41;;;;;;;8.20;7.30;;;;;;;20.71;85.62;101007.99;178238;1260;45952;-90
2023/09/06 05:47:45;;;;;;;8.00;6.40;;;;;;;21.09;85.91;101006.79;178128;1263;44416;-90
2023/09/06 05:51:51;;;;;;;12.30;7.30;;;;;;;21.42;82.79;101008.36;178149;1261;46023;-90
2023/09/06 05:55:57;;;;;;;12.80;8.10;;;;;;;21.64;83.35;101014.38;178333;1262;59449;-90
2023/09/06 06:00:01;;;;;;;9.70;7.10;;;;;;;22.12;81.96;101015.94;178337;1260;44686;-89
2023/09/06 06:04:06;;;;;;;8.60;7.70;;;;;;;22.50;79.82;101014.09;178611;1265;46135;-90
2023/09/06 06:08:11;;;;;;;8.30;6.30;;;;;;;22.81;79.12;101006.61;178426;1261;46071;-90
2023/09/06 06:12:22;;;;;;;12.70;8.30;;;;;;;23.03;77.23;101004.50;178625;1260;45882;-89
2023/09/06 06:16:26;;;;;;;7.80;6.10;;;;;;;23.05;77.34;101015.84;178599;1265;58285;-89
2023/09/06 06:20:29;;;;;;;10.30;6.10;;;;;;;22.91;77.43;101012.17;179324;1261;44454;-89
2023/09/06 06:24:46;;;;;;;11.80;8.20;;;;;;;22.90;78.59;101009.31;178565;1262;46151;-90
2023/09/06 06:28:50;;;;;;;9.30;7.30;;;;;;;22.97;77.85;101008.82;180268;1259;84528;-61
2023/09/06 06:32:55;;;;;;;15.70;8.90;;;;;;;23.07;77.65;101008.34;180473;1259;43646;-60
2023/09/06 06:36:58;;;;;;;9.40;8.30;;;;;;;23.05;79.29;101000.81;180382;1258;58375;-60
2023/09/06 06:41:02;;;;;;;9.30;6.70;;;;;;;23.24;79.55;101000.81;180547;1259;44972;-60
2023/09/06 06:45:07;;;;;;;9.80;6.80;;;;;;;23.29;78.75;100999.92;180568;1258;44796;-60
2023/09/06 06:49:11;;;;;;;8.50;7.20;;;;;;;23.07;78.97;101002.25;180631;1260;46042;-60
2023/09/06 06:53:15;;;;;;;12.20;7.50;;;;;;;23.00;80.22;101001.14;180606;1258;43743;-60
2023/09/06 06:57:21;;;;;;;9.70;6.70;;;;;;;23.36;80.27;101002.95;180561;1258;60202;-60
2023/09/06 07:01:27;;;;;;;;;;;;;;;23.74;78.83;101009.08;180601;1259;45942;-60
2023/09/06 07:05:30;;;;;;;9.20;8.00;;;;;;;24.04;77.23;101013.52;180595;1259;43548;-60
2023/09/06 07:09:34;;;;;;;12.30;7.40;;;;;;;24.20;77.50;101014.77;180456;1258;44681;-60
2023/09/06 07:13:40;;;;;;;12.10;7.50;;;;;;;24.42;76.22;101015.86;180511;1259;43499;-60
2023/09/06 07:17:46;;;;;;;12.70;7.80;;;;;;;24.41;74.69;101015.48;180465;1259;57653;-60
2023/09/06 07:21:50;;;;;;;27.90;19.10;;;;;;;24.34;73.60;101014.15;180456;1259;43559;-60
2023/09/06 07:26:02;;;;;;;14.00;10.00;;;;;;;24.35;74.17;101016.13;180506;1258;43798;-59
2023/09/06 07:30:10;;;;;;;8.50;6.60;;;;;;;24.34;73.76;101020.25;180403;1259;43815;-60
2023/09/06 07:34:26;;;;;;;10.50;8.50;;;;;;;24.23;74.93;101018.84;180457;1259;46077;-60
2023/09/06 07:38:30;;;;;;;12.00;8.30;;;;;;;24.17;75.52;101021.05;180325;1259;84220;-82
2023/09/06 07:42:38;;;;;;;7.70;5.60;;;;;;;24.19;76.19;101019.70;179849;1259;46693;-82
2023/09/06 07:46:44;;;;;;;7.10;6.20;;;;;;;24.18;76.66;101014.67;179755;1260;46006;-82
2023/09/06 07:50:48;;;;;;;12.00;8.00;;;;;;;24.16;77.60;101013.23;180002;1258;84640;-62
2023/09/06 07:54:52;;;;;;;11.10;8.10;;;;;;;24.27;78.99;101015.06;179687;1261;45069;-63
2023/09/06 07:59:02;;;;;;;11.80;8.10;;;;;;;24.37;77.88;101012.45;179764;1261;58463;-62
2023/09/06 08:03:06;;;;;;;8.90;6.90;;;;;;;24.46;77.09;101011.41;179654;1260;45050;-62
2023/09/06 08:07:11;;;;;;;9.40;6.70;;;;;;;24.56;77.68;101006.36;179714;1260;45939;-63
2023/09/06 08:11:17;;;;;;;9.30;5.80;;;;;;;24.54;77.24;101006.98;179692;1261;46030;-61
2023/09/06 08:15:25;;;;;;;6.40;5.20;;;;;;;24.63;78.52;101005.02;179728;1260;44581;-61
2023/09/06 08:19:29;;;;;;;8.80;6.00;;;;;;;24.78;76.87;101002.97;179524;1264;58344;-62
2023/09/06 08:23:33;;;;;;;25.40;6.70;;;;;;;25.03;75.85;101000.52;179743;1261;45770;-62
2023/09/06 08:27:38;;;;;;;6.90;6.20;;;;;;;25.18;71.74;101001.58;179806;1264;45140;-63
2023/09/06 08:31:42;;;;;;;6.20;5.30;;;;;;;25.16;70.53;101004.02;179711;1260;45152;-62
2023/09/06 08:35:46;;;;;;;5.60;5.10;;;;;;;25.10;70.59;101015.45;179581;1264;45328;-62
2023/09/06 08:39:50;;;;;;;8.10;5.20;;;;;;;25.12;73.33;101014.14;179662;1260;58921;-63
2023/09/06 08:43:54;;;;;;;11.50;5.80;;;;;;;25.01;71.94;101016.88;179778;1261;44995;-64
2023/09/06 08:48:04;;;;;;;7.30;5.40;;;;;;;24.95;72.95;101015.64;179685;1260;44736;-63
2023/09/06 08:52:33;;;;;;;7.50;6.00;;;;;;;24.98;74.70;101022.36;179539;1262;45890;-64
2023/09/06 08:56:36;;;;;;;7.20;4.90;;;;;;;25.10;74.64;101020.41;179699;1261;45965;-63
2023/09/06 09:00:43;;;;;;;7.10;5.20;;;;;;;25.21;73.67;101024.23;179519;1261;59284;-63
2023/09/06 09:04:47;;;;;;;5.30;4.50;;;;;;;25.14;74.13;101022.61;179736;1261;44795;-64
2023/09/06 09:08:52;;;;;;;5.40;4.60;;;;;;;25.09;75.60;101020.67;179901;1264;45905;-64
2023/09/06 09:12:56;;;;;;;;;;;;;;;25.25;75.02;101019.67;179458;1265;45219;-63
2023/09/06 09:17:00;;;;;;;4.70;4.10;;;;;;;25.38;71.25;101017.05;179649;1263;45869;-64
2023/09/06 09:21:06;;;;;;;6.20;4.40;;;;;;;25.47;71.76;101015.89;179446;1261;59500;-64
2023/09/06 09:25:15;;;;;;;6.20;4.50;;;;;;;25.48;72.36;101018.42;179485;1266;45915;-64
2023/09/06 09:29:19;;;;;;;4.80;4.30;;;;;;;25.49;71.92;101023.71;179838;1260;43599;-63
2023/09/06 09:33:28;;;;;;;26.20;23.70;;;;;;;25.51;71.27;101023.46;179633;1265;44329;-64
2023/09/06 09:37:32;;;;;;;30.20;22.20;;;;;;;25.60;71.82;101024.32;179860;1261;45128;-64
2023/09/06 09:41:43;;;;;;;6.20;5.60;;;;;;;25.69;70.68;101023.54;179541;1261;271442;-65
2023/09/06 09:46:02;;;;;;;4.30;3.50;;;;;;;25.81;68.82;101026.81;179784;1260;45004;-64
2023/09/06 09:50:06;;;;;;;11.40;9.30;;;;;;;25.85;68.45;101023.16;179729;1263;44878;-64
2023/09/06 09:54:14;;;;;;;8.50;5.90;;;;;;;25.88;70.01;101024.80;179775;1265;45259;-64
2023/09/06 09:58:19;;;;;;;6.50;4.60;;;;;;;25.98;68.74;101026.14;179796;1261;45008;-63
2023/09/06 10:02:27;;;;;;;6.80;3.60;;;;;;;26.07;67.56;101024.16;179942;1260;57401;-64
2023/09/06 10:06:43;;;;;;;4.80;3.00;;;;;;;26.14;66.05;101024.32;179853;1264;45030;-64
2023/09/06 10:10:49;;;;;;;5.40;4.60;;;;;;;26.20;64.76;101021.65;179862;1260;45869;-64
2023/09/06 10:14:54;;;;;;;5.30;3.80;;;;;;;26.26;65.88;101021.83;179824;1262;46004;-64
2023/09/06 10:18:58;;;;;;;5.50;2.90;;;;;;;26.32;65.60;101028.16;179965;1261;44374;-64
2023/09/06 10:23:17;;;;;;;5.20;3.20;;;;;;;26.37;64.18;101029.55;179948;1261;58735;-64
2023/09/06 10:27:45;;;;;;;5.00;3.20;;;;;;;26.44;66.51;101025.67;179860;1260;45000;-63
2023/09/06 10:31:52;;;;;;;6.10;3.20;;;;;;;26.60;68.25;101022.40;179889;1264;44578;-64
2023/09/06 10:36:27;;;;;;;4.70;4.00;;;;;;;26.71;66.53;101022.31;179793;1260;45968;-64
2023/09/06 10:40:51;;;;;;;9.00;3.30;;;;;;;26.78;65.33;101020.98;179929;1261;43731;-64
2023/09/06 10:44:55;;;;;;;3.70;3.00;;;;;;;26.85;65.87;101022.40;180038;1260;59208;-66
2023/09/06 10:49:12;;;;;;;9.30;5.00;;;;;;;26.99;63.90;101020.30;179874;1260;44060;-65
2023/09/06 10:53:19;;;;;;;3.80;3.40;;;;;;;27.10;62.89;101014.52;179764;1260;45172;-65
2023/09/06 10:58:32;;;;;;;6.90;3.60;;;;;;;27.23;62.74;101010.84;179732;1260;44642;-65
2023/09/06 11:02:37;;;;;;;6.10;3.80;;;;;;;27.28;59.41;101010.27;179718;1261;45876;-64
2023/09/06 11:06:52;;;;;;;3.40;2.90;;;;;;;27.32;59.15;101003.06;179876;1260;58878;-65
2023/09/06 11:11:02;;;;;;;3.70;2.50;;;;;;;27.32;57.77;101003.27;179963;1260;45017;-65
2023/09/06 11:15:13;;;;;;;3.10;2.20;;;;;;;27.42;58.57;100995.92;179849;1261;45881;-65
2023/09/06 11:19:31;;;;;;;3.50;2.80;;;;;;;27.54;55.26;100996.99;179773;1260;44454;-65
2023/09/06 11:23:50;;;;;;;4.40;3.80;;;;;;;27.61;56.35;100994.92;179947;1260;43709;-65
2023/09/06 11:28:00;;;;;;;4.30;3.20;;;;;;;27.73;56.47;100993.08;180082;1260;57892;-64
2023/09/06 11:32:12;;;;;;;8.60;2.80;;;;;;;27.87;56.79;100991.98;179718;1260;45920;-65
2023/09/06 11:36:17;;;;;;;5.30;2.60;;;;;;;27.98;56.76;100991.67;179851;1260;44241;-65
2023/09/06 11:40:34;;;;;;;3.00;2.70;;;;;;;28.06;56.09;100990.23;179753;1260;45969;-64
2023/09/06 11:45:00;;;;;;;;;;;;;;;;;;;;;
2023/09/06 11:49:34;;;;;;;16.50;8.90;;;;;;;28.12;55.44;100987.83;179896;1265;60221;-63
2023/09/06 11:53:53;;;;;;;7.20;3.60;;;;;;;28.19;56.26;100991.91;179826;1260;46209;-63
2023/09/06 11:57:58;;;;;;;3.40;2.80;;;;;;;28.27;55.71;100986.09;179893;1260;44943;-65
2023/09/06 12:02:13;;;;;;;4.60;3.20;;;;;;;28.33;55.12;100986.48;179786;1261;45697;-65
2023/09/06 12:06:16;;;;;;;7.60;3.30;;;;;;;28.47;53.96;100983.48;179936;1260;46109;-66
2023/09/06 12:15:20;;;;;;;5.00;4.50;;;;;;;28.59;53.91;100975.46;179805;1264;46011;-65
2023/09/06 12:19:38;;;;;;;3.30;2.70;;;;;;;28.69;53.41;100971.25;179855;1260;43892;-66
2023/09/06 12:23:42;;;;;;;5.20;3.10;;;;;;;28.71;52.77;100968.09;179764;1261;46099;-65
2023/09/06 12:27:48;;;;;;;4.90;2.50;;;;;;;28.68;51.94;100962.96;179866;1260;43577;-66
2023/09/06 12:31:53;;;;;;;4.60;2.70;;;;;;;28.64;52.23;100958.64;179934;1260;58569;-65
2023/09/06 12:36:05;;;;;;;5.80;2.70;;;;;;;28.61;51.27;100958.22;179759;1261;45937;-66
2023/09/06 12:40:15;;;;;;;4.40;3.10;;;;;;;28.68;51.30;100957.58;179891;1265;46043;-61
2023/09/06 12:44:35;;;;;;;10.50;4.00;;;;;;;28.79;51.75;100949.58;179426;1268;45542;-64
2023/09/06 12:48:38;;;;;;;4.40;2.20;;;;;;;28.90;51.83;100948.38;179601;1264;46050;-63
2023/09/06 12:52:42;;;;;;;7.20;2.60;;;;;;;29.05;51.46;100945.00;180096;1263;58220;-61
2023/09/06 12:56:45;;;;;;;4.00;2.70;;;;;;;29.11;51.27;100938.56;179802;1263;44866;-61
2023/09/06 13:00:49;;;;;;;3.30;2.70;;;;;;;29.12;50.19;100934.83;180012;1260;45984;-61
2023/09/06 13:04:52;;;;;;;3.00;2.70;;;;;;;29.10;49.01;100930.32;180269;1260;43804;-61
2023/09/06 13:08:56;;;;;;;5.10;3.00;;;;;;;29.01;48.51;100925.94;180188;1260;43683;-61
2023/09/06 13:13:00;;;;;;;2.60;2.20;;;;;;;28.98;47.61;100925.09;180301;1260;58198;-60
2023/09/06 13:17:04;;;;;;;4.50;3.70;;;;;;;29.03;47.88;100923.14;180089;1262;44079;-61
2023/09/06 13:21:08;;;;;;;5.40;3.00;;;;;;;29.08;49.08;100924.37;180230;1260;43661;-61
2023/09/06 13:25:13;;;;;;;4.20;3.20;;;;;;;29.11;48.96;100920.50;180161;1260;44906;-61
2023/09/06 13:29:18;;;;;;;7.00;2.70;;;;;;;29.17;49.38;100920.48;180300;1260;43811;-60
2023/09/06 13:33:27;;;;;;;4.90;3.60;;;;;;;29.22;50.04;100922.13;180216;1260;57306;-60
2023/09/06 13:37:32;;;;;;;4.60;3.70;;;;;;;29.28;50.45;100915.93;180273;1260;46031;-60
2023/09/06 13:41:44;;;;;;;5.20;3.10;;;;;;;29.26;50.25;100920.79;180298;1260;43690;-60
2023/09/06 13:45:47;;;;;;;8.50;4.30;;;;;;;29.25;49.87;100917.65;180246;1260;43660;-61
2023/09/06 13:49:54;;;;;;;5.00;3.90;;;;;;;29.16;49.61;100912.48;180133;1260;45044;-61
2023/09/06 13:54:05;;;;;;;5.70;3.80;;;;;;;29.16;48.73;100912.40;180180;1260;57402;-61
2023/09/06 13:58:10;;;;;;;4.80;2.90;;;;;;;29.16;48.53;100910.16;180059;1261;43621;-61
2023/09/06 14:02:14;;;;;;;3.80;3.30;;;;;;;29.25;48.13;100912.09;180366;1260;43521;-59
2023/09/06 14:06:18;;;;;;;5.50;3.00;;;;;;;29.28;48.83;100912.27;180305;1262;44049;-58
2023/09/06 14:10:22;;;;;;;10.30;2.90;;;;;;;29.18;48.66;100909.34;180210;1262;44409;-58
2023/09/06 14:14:26;;;;;;;5.60;3.00;;;;;;;29.04;48.02;100908.89;180314;1260;59185;-58
2023/09/06 14:18:31;;;;;;;4.60;3.00;;;;;;;28.99;48.56;100903.05;180466;1260;43686;-57
2023/09/06 14:22:36;;;;;;;9.00;4.90;;;;;;;29.00;50.52;100906.38;180324;1260;43544;-59
2023/09/06 14:26:42;;;;;;;3.90;3.40;;;;;;;29.07;49.64;100902.17;180276;1260;43670;-59
2023/09/06 14:30:48;;;;;;;6.70;3.30;;;;;;;29.14;52.17;100900.13;180027;1261;43582;-58
2023/09/06 14:34:51;;;;;;;5.70;3.50;;;;;;;29.15;53.69;100902.69;180192;1260;57644;-57
2023/09/06 14:38:55;;;;;;;5.10;2.60;;;;;;;29.11;51.84;100906.49;180303;1260;43958;-57
2023/09/06 14:42:59;;;;;;;8.10;4.50;;;;;;;29.13;52.28;100899.46;180378;1260;46069;-57
2023/09/06 14:47:04;;;;;;;4.60;3.40;;;;;;;29.18;50.83;100895.86;180206;1261;44496;-57
2023/09/06 14:51:09;;;;;;;4.20;3.10;;;;;;;29.18;51.15;100891.37;180254;1259;43568;-57
2023/09/06 14:55:16;;;;;;;5.60;3.60;;;;;;;29.14;52.07;100889.14;180339;1260;58202;-58
2023/09/06 14:59:19;;;;;;;5.70;4.00;;;;;;;29.08;52.26;100881.42;180293;1260;46009;-57
2023/09/06 15:03:23;;;;;;;5.80;3.70;;;;;;;29.04;51.10;100875.63;180368;1261;46014;-57
2023/09/06 15:07:35;;;;;;;5.70;3.80;;;;;;;28.98;49.92;100875.36;180283;1260;43624;-57
2023/09/06 15:11:40;;;;;;;4.90;3.40;;;;;;;28.92;50.01;100874.52;180343;1260;45914;-58
2023/09/06 15:15:49;;;;;;;4.30;3.20;;;;;;;28.91;49.61;100878.92;180333;1260;58907;-57
2023/09/06 15:19:52;;;;;;;5.00;3.40;;;;;;;28.92;49.67;100879.15;180351;1263;46286;-57
2023/09/06 15:23:56;;;;;;;6.30;4.20;;;;;;;28.99;51.15;100881.90;180413;1260;46140;-57
2023/09/06 15:28:28;;;;;;;8.70;4.10;;;;;;;28.98;51.20;100881.77;180284;1260;45985;-57
2023/09/06 15:32:35;;;;;;;3.70;3.40;;;;;;;28.92;51.34;100881.80;180200;1260;43791;-57
2023/09/06 15:47:24;;;;;;;6.30;4.50;;;;;;;28.66;52.24;100886.82;180541;1257;43910;-58
2023/09/06 15:51:28;;;;;;;5.10;3.60;;;;;;;28.58;53.88;100887.56;180404;1258;46030;-59
2023/09/06 15:55:35;;;;;;;7.60;3.60;;;;;;;28.46;53.82;100892.31;180448;1258;44890;-59
2023/09/06 16:00:09;;;;;;;5.60;4.00;;;;;;;28.32;54.27;100894.81;180502;1259;58770;-59
2023/09/06 16:04:59;;;;;;;5.60;3.00;;;;;;;28.18;54.38;100889.93;180564;1258;43655;-58
2023/09/06 16:09:03;;;;;;;7.20;3.00;;;;;;;28.01;55.71;100896.31;180498;1258;45918;-59
2023/09/06 16:14:03;;;;;;;10.90;4.40;;;;;;;27.83;56.27;100896.36;180603;1257;43597;-59
2023/09/06 16:18:07;;;;;;;14.70;4.80;;;;;;;27.64;57.92;100899.65;180529;1259;43577;-60
2023/09/06 16:22:13;;;;;;;9.50;3.40;;;;;;;27.49;58.42;100900.60;180616;1258;58924;-60
2023/09/06 16:26:18;;;;;;;5.30;3.60;;;;;;;27.37;58.59;100906.42;180570;1259;44522;-60
2023/09/06 16:30:22;;;;;;;8.40;4.30;;;;;;;27.23;59.11;100907.29;180691;1259;46017;-60
2023/09/06 16:34:29;;;;;;;8.70;3.20;;;;;;;27.08;60.09;100905.38;180600;1257;43581;-60
2023/09/06 16:38:37;;;;;;;22.50;5.10;;;;;;;26.94;60.71;100906.14;180626;1257;43780;-60
2023/09/06 16:42:41;;;;;;;11.90;5.30;;;;;;;26.77;61.16;100908.16;180543;1258;57901;-60
2023/09/06 16:46:44;;;;;;;23.10;6.00;;;;;;;26.62;60.77;100904.79;180497;1257;45952;-60
2023/09/06 16:50:49;;;;;;;24.30;6.60;;;;;;;26.45;60.96;100910.73;180595;1258;43510;-60
2023/09/06 16:54:55;;;;;;;17.30;5.40;;;;;;;26.29;61.58;100914.74;180578;1259;44545;-60
2023/09/06 16:58:59;;;;;;;15.10;4.50;;;;;;;26.14;61.55;100913.86;180707;1258;43718;-60
2023/09/06 17:03:11;;;;;;;8.10;4.30;;;;;;;25.98;61.23;100910.58;180675;1259;58901;-60
2023/09/06 17:07:15;;;;;;;3.80;2.80;;;;;;;25.82;61.52;100911.16;180636;1258;45024;-60
2023/09/06 17:11:44;;;;;;;30.50;5.00;;;;;;;25.67;62.26;100911.51;180447;1259;45901;-60
2023/09/06 17:15:49;;;;;;;6.70;3.80;;;;;;;25.50;63.35;100909.04;180632;1259;45349;-60
2023/09/06 17:19:53;;;;;;;6.90;3.70;;;;;;;25.35;64.21;100901.44;180577;1258;43991;-60
2023/09/06 17:24:01;;;;;;;;;;;;;;;25.20;64.73;100907.80;180754;1258;58897;-60
2023/09/06 17:28:07;;;;;;;8.30;4.10;;;;;;;25.05;65.12;100909.92;180665;1258;43598;-60
2023/09/06 17:32:13;;;;;;;10.60;4.50;;;;;;;24.87;66.13;100914.90;180606;1257;45174;-60
2023/09/06 17:36:16;;;;;;;8.20;4.40;;;;;;;24.69;67.64;100916.71;180521;1258;44563;-60
2023/09/06 17:40:23;;;;;;;22.20;6.60;;;;;;;24.45;70.44;100922.06;180647;1258;43578;-60
2023/09/06 17:44:27;;;;;;;24.50;8.60;;;;;;;24.20;70.78;100923.73;180533;1258;58211;-60
2023/09/06 17:48:34;;;;;;;22.50;7.60;;;;;;;24.01;71.19;100919.05;180656;1257;43978;-61
2023/09/06 17:52:43;;;;;;;9.70;5.10;;;;;;;23.85;71.84;100929.85;180411;1259;43746;-62
2023/09/06 17:56:59;;;;;;;13.30;5.80;;;;;;;23.67;72.46;100929.48;180298;1259;44975;-65
2023/09/06 18:01:08;;;;;;;11.20;5.50;;;;;;;23.51;73.19;100932.85;180389;1259;44643;-64
2023/09/06 18:05:17;;;;;;;7.60;4.40;;;;;;;23.37;73.64;100933.73;180221;1259;58060;-64
2023/09/06 18:09:23;;;;;;;14.10;5.10;;;;;;;23.23;74.72;100934.64;180110;1259;44805;-64
2023/09/06 18:13:26;;;;;;;15.80;5.60;;;;;;;23.09;76.27;100931.15;180081;1257;45992;-65
2023/09/06 18:17:31;;;;;;;12.90;5.80;;;;;;;22.97;76.60;100936.40;180171;1258;43935;-65
2023/09/06 18:21:37;;;;;;;13.90;5.20;;;;;;;22.84;77.44;100933.21;180043;1259;46041;-64
2023/09/06 18:25:40;;;;;;;13.60;6.20;;;;;;;22.71;78.28;100933.73;180116;1258;58499;-64
2023/09/06 18:34:38;;;;;;;14.00;6.50;;;;;;;22.26;82.45;100942.95;144029;1270;45269;-63
2023/09/06 18:38:43;;;;;;;14.20;7.10;;;;;;;21.97;83.64;100942.20;180138;1260;44453;-62
2023/09/06 18:43:38;;;;;;;28.00;16.40;;;;;;;21.77;85.54;100945.02;180107;1260;43574;-63
2023/09/06 18:47:48;;;;;;;24.20;14.80;;;;;;;21.38;88.54;100941.36;180253;1260;58268;-63
2023/09/06 18:51:58;;;;;;;26.50;15.70;;;;;;;21.22;88.59;100946.11;179930;1259;45063;-63
2023/09/06 18:56:03;;;;;;;30.80;16.50;;;;;;;21.15;87.78;100946.07;179946;1259;44906;-63
2023/09/06 19:00:21;;;;;;;29.20;18.30;;;;;;;21.08;89.04;100946.55;179938;1260;46083;-63
2023/09/06 19:04:50;;;;;;;26.00;13.70;;;;;;;20.94;90.97;100951.73;180116;1259;46041;-65
2023/09/06 19:08:56;;;;;;;18.00;10.90;;;;;;;20.82;92.01;100953.24;180197;1260;58737;-65
2023/09/06 19:13:04;;;;;;;13.60;8.00;;;;;;;20.71;92.91;100952.84;180139;1260;46046;-63
2023/09/06 19:17:09;;;;;;;12.30;7.20;;;;;;;20.60;94.33;100953.60;180180;1259;43933;-63
2023/09/06 19:21:17;;;;;;;16.10;9.70;;;;;;;20.43;96.78;100959.69;179935;1260;46012;-65